sensor_id;sensor_type;location;lat;lon;timestamp;P1;durP1;ratioP1;P2;durP2;ratioP2
7575;SDS011;3829;50.798;4.358;2023-02-26T00:01:13;12.97;;;2.40;;
7575;SDS011;3829;50.798;4.358;2023-02-26T00:03:40;7.80;;;2.73;;
7575;SDS011;3829;50.798;4.358;2023-02-26T00:06:06;9.90;;;2.17;;
7575;SDS011;3829;50.798;4.358;2023-02-26T00:08:32;7.50;;;2.40;;
7575;SDS011;3829;50.798;4.358;2023-02-26T00:10:58;8.13;;;2.57;;
7575;SDS011;3829;50.798;4.358;2023-02-26T00:13:26;10.67;;;2.27;;
7575;SDS011;3829;50.798;4.358;2023-02-26T00:15:54;6.73;;;2.13;;
7575;SDS011;3829;50.798;4.358;2023-02-26T00:18:23;12.87;;;2.70;;
7575;SDS011;3829;50.798;4.358;2023-02-26T00:20:49;10.00;;;2.40;;
7575;SDS011;3829;50.798;4.358;2023-02-26T00:23:15;8.03;;;2.37;;
7575;SDS011;3829;50.798;4.358;2023-02-26T00:25:42;8.30;;;2.50;;
7575;SDS011;3829;50.798;4.358;2023-02-26T00:28:09;8.73;;;2.30;;
7575;SDS011;3829;50.798;4.358;2023-02-26T00:30:35;9.67;;;2.53;;
7575;SDS011;3829;50.798;4.358;2023-02-26T00:33:01;12.27;;;2.20;;
7575;SDS011;3829;50.798;4.358;2023-02-26T00:35:28;6.23;;;2.03;;
7575;SDS011;3829;50.798;4.358;2023-02-26T00:37:56;8.23;;;2.10;;
7575;SDS011;3829;50.798;4.358;2023-02-26T00:42:54;10.80;;;3.07;;
7575;SDS011;3829;50.798;4.358;2023-02-26T00:45:20;5.10;;;2.00;;
7575;SDS011;3829;50.798;4.358;2023-02-26T00:50:33;11.67;;;3.10;;
7575;SDS011;3829;50.798;4.358;2023-02-26T00:53:07;8.50;;;2.10;;
7575;SDS011;3829;50.798;4.358;2023-02-26T00:55:41;7.10;;;2.13;;
7575;SDS011;3829;50.798;4.358;2023-02-26T00:58:06;9.80;;;2.53;;
7575;SDS011;3829;50.798;4.358;2023-02-26T01:00:32;11.07;;;2.30;;
7575;SDS011;3829;50.798;4.358;2023-02-26T01:02:58;5.93;;;2.60;;
7575;SDS011;3829;50.798;4.358;2023-02-26T01:05:23;8.60;;;2.03;;
7575;SDS011;3829;50.798;4.358;2023-02-26T01:07:57;8.10;;;2.43;;
7575;SDS011;3829;50.798;4.358;2023-02-26T01:10:39;5.27;;;3.03;;
7575;SDS011;3829;50.798;4.358;2023-02-26T01:13:05;5.47;;;2.57;;
7575;SDS011;3829;50.798;4.358;2023-02-26T01:15:31;13.13;;;2.30;;
7575;SDS011;3829;50.798;4.358;2023-02-26T01:18:05;5.40;;;1.93;;
7575;SDS011;3829;50.798;4.358;2023-02-26T01:20:46;4.77;;;2.63;;
7575;SDS011;3829;50.798;4.358;2023-02-26T01:23:22;10.17;;;2.47;;
7575;SDS011;3829;50.798;4.358;2023-02-26T01:25:55;8.83;;;2.13;;
7575;SDS011;3829;50.798;4.358;2023-02-26T01:28:23;9.97;;;2.90;;
7575;SDS011;3829;50.798;4.358;2023-02-26T01:30:50;8.23;;;2.40;;
7575;SDS011;3829;50.798;4.358;2023-02-26T01:33:34;12.90;;;2.87;;
7575;SDS011;3829;50.798;4.358;2023-02-26T01:36:09;11.97;;;3.30;;
7575;SDS011;3829;50.798;4.358;2023-02-26T01:41:35;10.37;;;3.00;;
7575;SDS011;3829;50.798;4.358;2023-02-26T01:49:11;10.17;;;2.53;;
7575;SDS011;3829;50.798;4.358;2023-02-26T01:54:55;4.63;;;1.67;;
7575;SDS011;3829;50.798;4.358;2023-02-26T01:57:21;7.60;;;2.80;;
7575;SDS011;3829;50.798;4.358;2023-02-26T01:59:48;9.30;;;2.27;;
7575;SDS011;3829;50.798;4.358;2023-02-26T02:02:22;14.60;;;2.60;;
7575;SDS011;3829;50.798;4.358;2023-02-26T02:04:49;8.00;;;3.10;;
7575;SDS011;3829;50.798;4.358;2023-02-26T02:07:15;8.60;;;2.13;;
7575;SDS011;3829;50.798;4.358;2023-02-26T02:09:42;7.50;;;2.10;;
7575;SDS011;3829;50.798;4.358;2023-02-26T02:34:41;5.73;;;2.00;;
7575;SDS011;3829;50.798;4.358;2023-02-26T02:37:15;5.40;;;2.33;;
7575;SDS011;3829;50.798;4.358;2023-02-26T02:39:50;5.97;;;2.40;;
7575;SDS011;3829;50.798;4.358;2023-02-26T02:42:34;4.50;;;2.73;;
7575;SDS011;3829;50.798;4.358;2023-02-26T02:45:08;7.10;;;2.07;;
7575;SDS011;3829;50.798;4.358;2023-02-26T02:48:00;5.17;;;1.97;;
7575;SDS011;3829;50.798;4.358;2023-02-26T02:50:34;5.03;;;2.30;;
7575;SDS011;3829;50.798;4.358;2023-02-26T02:53:06;9.80;;;2.77;;
7575;SDS011;3829;50.798;4.358;2023-02-26T02:55:42;8.27;;;2.37;;
7575;SDS011;3829;50.798;4.358;2023-02-26T02:58:21;2.27;;;1.80;;
7575;SDS011;3829;50.798;4.358;2023-02-26T03:00:52;6.17;;;2.70;;
7575;SDS011;3829;50.798;4.358;2023-02-26T03:05:52;10.00;;;2.73;;
7575;SDS011;3829;50.798;4.358;2023-02-26T03:08:21;12.10;;;1.97;;
7575;SDS011;3829;50.798;4.358;2023-02-26T03:10:51;4.37;;;1.70;;
7575;SDS011;3829;50.798;4.358;2023-02-26T03:13:18;4.23;;;2.00;;
7575;SDS011;3829;50.798;4.358;2023-02-26T03:15:55;9.73;;;2.27;;
7575;SDS011;3829;50.798;4.358;2023-02-26T03:24:06;4.53;;;2.30;;
7575;SDS011;3829;50.798;4.358;2023-02-26T03:26:44;7.97;;;2.17;;
7575;SDS011;3829;50.798;4.358;2023-02-26T03:32:21;2.97;;;1.93;;
7575;SDS011;3829;50.798;4.358;2023-02-26T03:37:51;7.43;;;2.20;;
7575;SDS011;3829;50.798;4.358;2023-02-26T03:40:30;7.43;;;1.73;;
7575;SDS011;3829;50.798;4.358;2023-02-26T03:43:07;4.97;;;1.90;;
7575;SDS011;3829;50.798;4.358;2023-02-26T03:45:38;4.90;;;2.03;;
7575;SDS011;3829;50.798;4.358;2023-02-26T03:48:07;9.00;;;1.53;;
7575;SDS011;3829;50.798;4.358;2023-02-26T03:50:48;12.37;;;1.70;;
7575;SDS011;3829;50.798;4.358;2023-02-26T03:53:19;7.13;;;1.83;;
7575;SDS011;3829;50.798;4.358;2023-02-26T03:55:56;8.40;;;1.87;;
7575;SDS011;3829;50.798;4.358;2023-02-26T03:58:23;10.40;;;1.97;;
7575;SDS011;3829;50.798;4.358;2023-02-26T04:00:51;7.07;;;1.80;;
7575;SDS011;3829;50.798;4.358;2023-02-26T04:03:43;2.80;;;1.90;;
7575;SDS011;3829;50.798;4.358;2023-02-26T04:06:13;7.67;;;2.13;;
7575;SDS011;3829;50.798;4.358;2023-02-26T04:08:39;8.30;;;1.60;;
7575;SDS011;3829;50.798;4.358;2023-02-26T04:11:10;12.77;;;2.50;;
7575;SDS011;3829;50.798;4.358;2023-02-26T04:13:38;5.60;;;1.67;;
7575;SDS011;3829;50.798;4.358;2023-02-26T04:16:04;2.17;;;1.77;;
7575;SDS011;3829;50.798;4.358;2023-02-26T04:18:30;7.67;;;2.13;;
7575;SDS011;3829;50.798;4.358;2023-02-26T04:20:56;5.70;;;1.70;;
7575;SDS011;3829;50.798;4.358;2023-02-26T04:23:21;6.27;;;1.50;;
7575;SDS011;3829;50.798;4.358;2023-02-26T04:25:47;5.07;;;1.73;;
7575;SDS011;3829;50.798;4.358;2023-02-26T04:28:12;6.10;;;1.70;;
7575;SDS011;3829;50.798;4.358;2023-02-26T04:30:38;3.03;;;2.10;;
7575;SDS011;3829;50.798;4.358;2023-02-26T04:33:03;5.20;;;1.50;;
7575;SDS011;3829;50.798;4.358;2023-02-26T04:35:29;9.50;;;1.50;;
7575;SDS011;3829;50.798;4.358;2023-02-26T04:37:54;5.10;;;1.80;;
7575;SDS011;3829;50.798;4.358;2023-02-26T04:40:20;6.23;;;2.03;;
7575;SDS011;3829;50.798;4.358;2023-02-26T04:42:48;7.60;;;1.93;;
7575;SDS011;3829;50.798;4.358;2023-02-26T04:45:13;6.70;;;2.00;;
7575;SDS011;3829;50.798;4.358;2023-02-26T04:47:39;4.50;;;1.83;;
7575;SDS011;3829;50.798;4.358;2023-02-26T04:50:05;10.77;;;2.57;;
7575;SDS011;3829;50.798;4.358;2023-02-26T04:52:31;3.87;;;2.07;;
7575;SDS011;3829;50.798;4.358;2023-02-26T04:54:57;6.83;;;2.07;;
7575;SDS011;3829;50.798;4.358;2023-02-26T04:57:23;6.07;;;1.83;;
7575;SDS011;3829;50.798;4.358;2023-02-26T04:59:48;6.57;;;2.20;;
7575;SDS011;3829;50.798;4.358;2023-02-26T05:02:14;7.77;;;1.60;;
7575;SDS011;3829;50.798;4.358;2023-02-26T05:04:39;1.60;;;1.50;;
7575;SDS011;3829;50.798;4.358;2023-02-26T05:07:05;4.37;;;1.70;;
7575;SDS011;3829;50.798;4.358;2023-02-26T05:09:30;6.13;;;1.80;;
7575;SDS011;3829;50.798;4.358;2023-02-26T05:11:56;1.93;;;1.40;;
7575;SDS011;3829;50.798;4.358;2023-02-26T05:14:22;4.33;;;1.43;;
7575;SDS011;3829;50.798;4.358;2023-02-26T05:16:47;2.77;;;1.63;;
7575;SDS011;3829;50.798;4.358;2023-02-26T05:19:13;5.67;;;1.90;;
7575;SDS011;3829;50.798;4.358;2023-02-26T05:21:38;6.07;;;1.63;;
7575;SDS011;3829;50.798;4.358;2023-02-26T05:24:04;4.30;;;1.30;;
7575;SDS011;3829;50.798;4.358;2023-02-26T05:26:30;6.57;;;1.50;;
7575;SDS011;3829;50.798;4.358;2023-02-26T05:28:55;5.87;;;1.53;;
7575;SDS011;3829;50.798;4.358;2023-02-26T05:31:21;4.50;;;1.47;;
7575;SDS011;3829;50.798;4.358;2023-02-26T05:33:47;3.43;;;1.63;;
7575;SDS011;3829;50.798;4.358;2023-02-26T05:36:12;5.07;;;1.67;;
7575;SDS011;3829;50.798;4.358;2023-02-26T05:38:38;5.13;;;1.43;;
7575;SDS011;3829;50.798;4.358;2023-02-26T05:41:03;2.83;;;1.77;;
7575;SDS011;3829;50.798;4.358;2023-02-26T05:43:29;4.87;;;1.93;;
7575;SDS011;3829;50.798;4.358;2023-02-26T05:45:55;8.13;;;1.60;;
7575;SDS011;3829;50.798;4.358;2023-02-26T05:48:21;5.20;;;1.63;;
7575;SDS011;3829;50.798;4.358;2023-02-26T05:50:48;4.67;;;1.70;;
7575;SDS011;3829;50.798;4.358;2023-02-26T05:53:14;3.43;;;1.50;;
7575;SDS011;3829;50.798;4.358;2023-02-26T05:55:40;7.30;;;1.40;;
7575;SDS011;3829;50.798;4.358;2023-02-26T05:58:05;3.50;;;1.50;;
7575;SDS011;3829;50.798;4.358;2023-02-26T06:00:31;3.77;;;1.50;;
7575;SDS011;3829;50.798;4.358;2023-02-26T06:02:56;3.13;;;1.50;;
7575;SDS011;3829;50.798;4.358;2023-02-26T06:05:22;10.40;;;1.90;;
7575;SDS011;3829;50.798;4.358;2023-02-26T06:07:48;4.20;;;1.40;;
7575;SDS011;3829;50.798;4.358;2023-02-26T06:10:13;7.33;;;1.50;;
7575;SDS011;3829;50.798;4.358;2023-02-26T06:12:39;3.87;;;1.50;;
7575;SDS011;3829;50.798;4.358;2023-02-26T06:15:05;6.57;;;1.80;;
7575;SDS011;3829;50.798;4.358;2023-02-26T06:17:32;4.37;;;1.97;;
7575;SDS011;3829;50.798;4.358;2023-02-26T06:19:58;5.83;;;1.63;;
7575;SDS011;3829;50.798;4.358;2023-02-26T06:22:23;3.07;;;1.17;;
7575;SDS011;3829;50.798;4.358;2023-02-26T06:24:49;5.37;;;1.53;;
7575;SDS011;3829;50.798;4.358;2023-02-26T06:27:15;6.67;;;1.93;;
7575;SDS011;3829;50.798;4.358;2023-02-26T06:29:41;3.50;;;1.50;;
7575;SDS011;3829;50.798;4.358;2023-02-26T06:32:07;3.70;;;1.60;;
7575;SDS011;3829;50.798;4.358;2023-02-26T06:34:32;7.33;;;1.47;;
7575;SDS011;3829;50.798;4.358;2023-02-26T06:36:58;14.67;;;1.83;;
7575;SDS011;3829;50.798;4.358;2023-02-26T06:39:24;4.63;;;2.43;;
7575;SDS011;3829;50.798;4.358;2023-02-26T06:41:49;7.87;;;1.60;;
7575;SDS011;3829;50.798;4.358;2023-02-26T06:44:15;3.37;;;1.37;;
7575;SDS011;3829;50.798;4.358;2023-02-26T06:46:40;1.80;;;1.27;;
7575;SDS011;3829;50.798;4.358;2023-02-26T06:49:06;4.07;;;1.33;;
7575;SDS011;3829;50.798;4.358;2023-02-26T06:51:32;4.77;;;2.53;;
7575;SDS011;3829;50.798;4.358;2023-02-26T06:53:57;3.87;;;1.23;;
7575;SDS011;3829;50.798;4.358;2023-02-26T06:56:23;3.33;;;1.40;;
7575;SDS011;3829;50.798;4.358;2023-02-26T06:58:49;2.00;;;1.30;;
7575;SDS011;3829;50.798;4.358;2023-02-26T07:01:15;9.23;;;2.57;;
7575;SDS011;3829;50.798;4.358;2023-02-26T07:03:41;6.00;;;1.27;;
7575;SDS011;3829;50.798;4.358;2023-02-26T07:06:08;3.90;;;1.23;;
7575;SDS011;3829;50.798;4.358;2023-02-26T07:08:34;5.53;;;1.40;;
7575;SDS011;3829;50.798;4.358;2023-02-26T07:11:00;5.43;;;1.60;;
7575;SDS011;3829;50.798;4.358;2023-02-26T07:13:26;2.80;;;1.33;;
7575;SDS011;3829;50.798;4.358;2023-02-26T07:15:52;1.80;;;1.23;;
7575;SDS011;3829;50.798;4.358;2023-02-26T07:18:17;1.93;;;1.17;;
7575;SDS011;3829;50.798;4.358;2023-02-26T07:20:43;6.07;;;2.60;;
7575;SDS011;3829;50.798;4.358;2023-02-26T07:23:09;5.13;;;1.47;;
7575;SDS011;3829;50.798;4.358;2023-02-26T07:25:35;7.67;;;1.23;;
7575;SDS011;3829;50.798;4.358;2023-02-26T07:28:01;3.03;;;1.07;;
7575;SDS011;3829;50.798;4.358;2023-02-26T07:30:28;3.33;;;1.23;;
7575;SDS011;3829;50.798;4.358;2023-02-26T07:32:54;6.07;;;1.00;;
7575;SDS011;3829;50.798;4.358;2023-02-26T07:35:20;5.87;;;1.73;;
7575;SDS011;3829;50.798;4.358;2023-02-26T07:37:46;10.60;;;1.67;;
7575;SDS011;3829;50.798;4.358;2023-02-26T07:40:12;6.13;;;1.10;;
7575;SDS011;3829;50.798;4.358;2023-02-26T07:42:38;5.90;;;1.30;;
7575;SDS011;3829;50.798;4.358;2023-02-26T07:45:05;2.50;;;0.83;;
7575;SDS011;3829;50.798;4.358;2023-02-26T07:47:32;2.47;;;1.70;;
7575;SDS011;3829;50.798;4.358;2023-02-26T07:49:58;2.77;;;1.17;;
7575;SDS011;3829;50.798;4.358;2023-02-26T07:52:24;3.83;;;1.27;;
7575;SDS011;3829;50.798;4.358;2023-02-26T07:54:50;7.23;;;1.43;;
7575;SDS011;3829;50.798;4.358;2023-02-26T07:57:16;3.17;;;1.33;;
7575;SDS011;3829;50.798;4.358;2023-02-26T07:59:42;3.80;;;1.33;;
7575;SDS011;3829;50.798;4.358;2023-02-26T08:02:08;1.30;;;1.20;;
7575;SDS011;3829;50.798;4.358;2023-02-26T08:04:35;5.53;;;1.17;;
7575;SDS011;3829;50.798;4.358;2023-02-26T08:07:01;3.20;;;1.53;;
7575;SDS011;3829;50.798;4.358;2023-02-26T08:09:26;2.17;;;1.40;;
7575;SDS011;3829;50.798;4.358;2023-02-26T08:11:52;6.53;;;1.23;;
7575;SDS011;3829;50.798;4.358;2023-02-26T08:14:18;5.73;;;1.00;;
7575;SDS011;3829;50.798;4.358;2023-02-26T08:16:43;6.53;;;1.20;;
7575;SDS011;3829;50.798;4.358;2023-02-26T08:19:09;3.57;;;1.07;;
7575;SDS011;3829;50.798;4.358;2023-02-26T08:21:34;3.70;;;0.93;;
7575;SDS011;3829;50.798;4.358;2023-02-26T08:24:00;5.63;;;1.13;;
7575;SDS011;3829;50.798;4.358;2023-02-26T08:26:26;4.77;;;1.17;;
7575;SDS011;3829;50.798;4.358;2023-02-26T08:28:52;5.70;;;1.53;;
7575;SDS011;3829;50.798;4.358;2023-02-26T08:31:18;1.97;;;1.10;;
7575;SDS011;3829;50.798;4.358;2023-02-26T08:33:44;6.43;;;1.10;;
7575;SDS011;3829;50.798;4.358;2023-02-26T08:36:11;2.53;;;1.00;;
7575;SDS011;3829;50.798;4.358;2023-02-26T08:38:36;3.97;;;1.07;;
7575;SDS011;3829;50.798;4.358;2023-02-26T08:41:03;4.03;;;1.63;;
7575;SDS011;3829;50.798;4.358;2023-02-26T08:43:29;3.23;;;1.33;;
7575;SDS011;3829;50.798;4.358;2023-02-26T08:45:55;3.93;;;1.43;;
7575;SDS011;3829;50.798;4.358;2023-02-26T08:48:21;1.67;;;1.20;;
7575;SDS011;3829;50.798;4.358;2023-02-26T08:50:48;2.73;;;0.97;;
7575;SDS011;3829;50.798;4.358;2023-02-26T08:53:14;3.20;;;1.40;;
7575;SDS011;3829;50.798;4.358;2023-02-26T08:55:39;3.40;;;1.20;;
7575;SDS011;3829;50.798;4.358;2023-02-26T08:58:05;5.33;;;1.30;;
7575;SDS011;3829;50.798;4.358;2023-02-26T09:00:32;2.70;;;1.40;;
7575;SDS011;3829;50.798;4.358;2023-02-26T09:02:57;7.03;;;1.80;;
7575;SDS011;3829;50.798;4.358;2023-02-26T09:05:23;4.53;;;1.00;;
7575;SDS011;3829;50.798;4.358;2023-02-26T09:07:49;6.30;;;1.57;;
7575;SDS011;3829;50.798;4.358;2023-02-26T09:10:14;5.07;;;1.33;;
7575;SDS011;3829;50.798;4.358;2023-02-26T09:12:40;4.20;;;1.27;;
7575;SDS011;3829;50.798;4.358;2023-02-26T09:15:07;4.20;;;1.40;;
7575;SDS011;3829;50.798;4.358;2023-02-26T09:17:34;3.17;;;1.10;;
7575;SDS011;3829;50.798;4.358;2023-02-26T09:20:00;4.23;;;1.30;;
7575;SDS011;3829;50.798;4.358;2023-02-26T09:22:26;2.87;;;1.33;;
7575;SDS011;3829;50.798;4.358;2023-02-26T09:24:51;2.73;;;1.20;;
7575;SDS011;3829;50.798;4.358;2023-02-26T09:27:17;3.73;;;1.27;;
7575;SDS011;3829;50.798;4.358;2023-02-26T09:29:42;2.83;;;1.07;;
7575;SDS011;3829;50.798;4.358;2023-02-26T09:32:08;2.10;;;1.23;;
7575;SDS011;3829;50.798;4.358;2023-02-26T09:34:34;2.03;;;0.87;;
7575;SDS011;3829;50.798;4.358;2023-02-26T09:37:02;1.83;;;0.90;;
7575;SDS011;3829;50.798;4.358;2023-02-26T09:39:28;3.50;;;1.30;;
7575;SDS011;3829;50.798;4.358;2023-02-26T09:41:55;1.13;;;1.03;;
7575;SDS011;3829;50.798;4.358;2023-02-26T09:47:00;3.67;;;1.33;;
7575;SDS011;3829;50.798;4.358;2023-02-26T09:54:57;1.43;;;0.70;;
7575;SDS011;3829;50.798;4.358;2023-02-26T09:57:36;7.70;;;1.20;;
7575;SDS011;3829;50.798;4.358;2023-02-26T10:00:18;2.70;;;1.13;;
7575;SDS011;3829;50.798;4.358;2023-02-26T10:02:58;1.57;;;0.87;;
7575;SDS011;3829;50.798;4.358;2023-02-26T10:12:02;1.60;;;1.13;;
7575;SDS011;3829;50.798;4.358;2023-02-26T10:14:36;3.10;;;0.97;;
7575;SDS011;3829;50.798;4.358;2023-02-26T10:19:58;1.17;;;0.80;;
7575;SDS011;3829;50.798;4.358;2023-02-26T10:22:36;2.83;;;1.00;;
7575;SDS011;3829;50.798;4.358;2023-02-26T10:25:14;4.00;;;1.10;;
7575;SDS011;3829;50.798;4.358;2023-02-26T10:35:52;3.57;;;1.10;;
7575;SDS011;3829;50.798;4.358;2023-02-26T10:38:22;5.80;;;1.67;;
7575;SDS011;3829;50.798;4.358;2023-02-26T10:40:52;1.30;;;1.20;;
7575;SDS011;3829;50.798;4.358;2023-02-26T10:43:42;2.33;;;1.00;;
7575;SDS011;3829;50.798;4.358;2023-02-26T10:46:18;5.50;;;1.00;;
7575;SDS011;3829;50.798;4.358;2023-02-26T10:48:57;3.80;;;1.10;;
7575;SDS011;3829;50.798;4.358;2023-02-26T10:51:49;3.73;;;1.20;;
7575;SDS011;3829;50.798;4.358;2023-02-26T10:54:28;1.00;;;0.90;;
7575;SDS011;3829;50.798;4.358;2023-02-26T10:56:59;2.53;;;1.20;;
7575;SDS011;3829;50.798;4.358;2023-02-26T10:59:25;5.20;;;0.77;;
7575;SDS011;3829;50.798;4.358;2023-02-26T11:01:51;5.27;;;1.00;;
7575;SDS011;3829;50.798;4.358;2023-02-26T11:04:20;0.90;;;0.73;;
7575;SDS011;3829;50.798;4.358;2023-02-26T11:06:51;1.00;;;0.90;;
7575;SDS011;3829;50.798;4.358;2023-02-26T11:09:28;1.70;;;1.00;;
7575;SDS011;3829;50.798;4.358;2023-02-26T11:14:36;2.77;;;1.00;;
7575;SDS011;3829;50.798;4.358;2023-02-26T11:17:05;1.57;;;0.90;;
7575;SDS011;3829;50.798;4.358;2023-02-26T11:19:36;2.77;;;0.70;;
7575;SDS011;3829;50.798;4.358;2023-02-26T11:22:05;4.37;;;1.23;;
7575;SDS011;3829;50.798;4.358;2023-02-26T11:24:35;3.43;;;0.80;;
7575;SDS011;3829;50.798;4.358;2023-02-26T11:27:07;1.13;;;1.00;;
7575;SDS011;3829;50.798;4.358;2023-02-26T11:29:44;2.50;;;1.67;;
7575;SDS011;3829;50.798;4.358;2023-02-26T11:32:19;1.13;;;1.03;;
7575;SDS011;3829;50.798;4.358;2023-02-26T11:34:48;2.30;;;1.13;;
7575;SDS011;3829;50.798;4.358;2023-02-26T11:37:49;1.40;;;0.90;;
7575;SDS011;3829;50.798;4.358;2023-02-26T11:40:21;1.70;;;1.00;;
7575;SDS011;3829;50.798;4.358;2023-02-26T11:42:52;1.80;;;1.10;;
7575;SDS011;3829;50.798;4.358;2023-02-26T11:45:20;2.70;;;1.03;;
7575;SDS011;3829;50.798;4.358;2023-02-26T11:47:47;2.40;;;1.17;;
7575;SDS011;3829;50.798;4.358;2023-02-26T11:50:16;2.07;;;0.90;;
7575;SDS011;3829;50.798;4.358;2023-02-26T11:52:47;1.53;;;0.90;;
7575;SDS011;3829;50.798;4.358;2023-02-26T11:55:34;1.43;;;0.77;;
7575;SDS011;3829;50.798;4.358;2023-02-26T11:58:03;2.33;;;1.10;;
7575;SDS011;3829;50.798;4.358;2023-02-26T12:00:40;0.90;;;0.90;;
7575;SDS011;3829;50.798;4.358;2023-02-26T12:03:07;1.73;;;1.00;;
7575;SDS011;3829;50.798;4.358;2023-02-26T12:05:41;2.57;;;1.30;;
7575;SDS011;3829;50.798;4.358;2023-02-26T12:08:16;2.20;;;1.00;;
7575;SDS011;3829;50.798;4.358;2023-02-26T12:13:26;1.10;;;0.87;;
7575;SDS011;3829;50.798;4.358;2023-02-26T12:16:13;1.90;;;0.90;;
7575;SDS011;3829;50.798;4.358;2023-02-26T12:21:45;2.20;;;0.90;;
7575;SDS011;3829;50.798;4.358;2023-02-26T12:38:34;1.33;;;0.67;;
7575;SDS011;3829;50.798;4.358;2023-02-26T12:46:21;2.30;;;1.00;;
7575;SDS011;3829;50.798;4.358;2023-02-26T12:55:13;1.10;;;0.80;;
7575;SDS011;3829;50.798;4.358;2023-02-26T13:08:59;2.37;;;0.90;;
7575;SDS011;3829;50.798;4.358;2023-02-26T13:14:34;0.70;;;0.70;;
7575;SDS011;3829;50.798;4.358;2023-02-26T13:17:38;2.97;;;0.83;;
7575;SDS011;3829;50.798;4.358;2023-02-26T13:20:29;1.77;;;0.80;;
7575;SDS011;3829;50.798;4.358;2023-02-26T13:23:01;0.80;;;0.80;;
7575;SDS011;3829;50.798;4.358;2023-02-26T13:25:46;1.20;;;1.10;;
7575;SDS011;3829;50.798;4.358;2023-02-26T13:31:03;3.90;;;1.07;;
7575;SDS011;3829;50.798;4.358;2023-02-26T13:33:39;3.60;;;1.00;;
7575;SDS011;3829;50.798;4.358;2023-02-26T13:36:06;5.93;;;1.37;;
7575;SDS011;3829;50.798;4.358;2023-02-26T13:38:37;2.93;;;1.03;;
7575;SDS011;3829;50.798;4.358;2023-02-26T13:41:15;2.53;;;0.90;;
7575;SDS011;3829;50.798;4.358;2023-02-26T13:52:27;3.60;;;1.07;;
7575;SDS011;3829;50.798;4.358;2023-02-26T13:54:57;2.77;;;0.90;;
7575;SDS011;3829;50.798;4.358;2023-02-26T13:57:25;1.13;;;0.93;;
7575;SDS011;3829;50.798;4.358;2023-02-26T14:00:14;1.07;;;0.90;;
7575;SDS011;3829;50.798;4.358;2023-02-26T14:02:48;2.30;;;0.90;;
7575;SDS011;3829;50.798;4.358;2023-02-26T14:05:27;1.53;;;1.10;;
7575;SDS011;3829;50.798;4.358;2023-02-26T14:13:37;2.23;;;0.90;;
7575;SDS011;3829;50.798;4.358;2023-02-26T14:16:11;2.07;;;0.67;;
7575;SDS011;3829;50.798;4.358;2023-02-26T14:18:48;2.93;;;1.07;;
7575;SDS011;3829;50.798;4.358;2023-02-26T14:22:00;1.93;;;0.90;;
7575;SDS011;3829;50.798;4.358;2023-02-26T14:24:20;2.93;;;1.00;;
7575;SDS011;3829;50.798;4.358;2023-02-26T14:27:07;1.80;;;1.03;;
7575;SDS011;3829;50.798;4.358;2023-02-26T14:29:40;1.23;;;0.97;;
7575;SDS011;3829;50.798;4.358;2023-02-26T14:35:32;2.57;;;1.07;;
7575;SDS011;3829;50.798;4.358;2023-02-26T14:37:57;1.43;;;1.10;;
7575;SDS011;3829;50.798;4.358;2023-02-26T14:40:28;1.63;;;0.90;;
7575;SDS011;3829;50.798;4.358;2023-02-26T14:42:59;2.07;;;1.00;;
7575;SDS011;3829;50.798;4.358;2023-02-26T14:45:31;1.57;;;1.07;;
7575;SDS011;3829;50.798;4.358;2023-02-26T14:48:12;1.90;;;1.00;;
7575;SDS011;3829;50.798;4.358;2023-02-26T14:53:20;6.23;;;1.10;;
7575;SDS011;3829;50.798;4.358;2023-02-26T15:04:13;1.40;;;0.90;;
7575;SDS011;3829;50.798;4.358;2023-02-26T15:07:02;3.43;;;0.90;;
7575;SDS011;3829;50.798;4.358;2023-02-26T15:12:32;1.00;;;0.90;;
7575;SDS011;3829;50.798;4.358;2023-02-26T15:23:48;1.17;;;0.97;;
7575;SDS011;3829;50.798;4.358;2023-02-26T15:26:22;1.20;;;1.10;;
7575;SDS011;3829;50.798;4.358;2023-02-26T15:28:51;1.33;;;1.20;;
7575;SDS011;3829;50.798;4.358;2023-02-26T15:31:19;3.97;;;0.93;;
7575;SDS011;3829;50.798;4.358;2023-02-26T15:33:49;4.63;;;1.10;;
7575;SDS011;3829;50.798;4.358;2023-02-26T15:36:19;0.80;;;0.80;;
7575;SDS011;3829;50.798;4.358;2023-02-26T15:38:49;1.00;;;0.90;;
7575;SDS011;3829;50.798;4.358;2023-02-26T15:41:19;1.77;;;1.00;;
7575;SDS011;3829;50.798;4.358;2023-02-26T15:43:50;4.23;;;1.40;;
7575;SDS011;3829;50.798;4.358;2023-02-26T15:46:19;1.93;;;1.03;;
7575;SDS011;3829;50.798;4.358;2023-02-26T15:48:51;1.90;;;0.90;;
7575;SDS011;3829;50.798;4.358;2023-02-26T15:51:23;3.13;;;1.10;;
7575;SDS011;3829;50.798;4.358;2023-02-26T15:53:49;1.83;;;1.10;;
7575;SDS011;3829;50.798;4.358;2023-02-26T15:56:18;2.93;;;1.03;;
7575;SDS011;3829;50.798;4.358;2023-02-26T15:58:50;3.13;;;1.20;;
7575;SDS011;3829;50.798;4.358;2023-02-26T16:01:22;3.73;;;1.20;;
7575;SDS011;3829;50.798;4.358;2023-02-26T16:03:50;2.10;;;1.40;;
7575;SDS011;3829;50.798;4.358;2023-02-26T16:06:27;1.87;;;1.17;;
7575;SDS011;3829;50.798;4.358;2023-02-26T16:08:58;1.13;;;1.00;;
7575;SDS011;3829;50.798;4.358;2023-02-26T16:11:26;1.13;;;0.80;;
7575;SDS011;3829;50.798;4.358;2023-02-26T16:13:56;2.77;;;0.90;;
7575;SDS011;3829;50.798;4.358;2023-02-26T16:16:24;2.57;;;1.17;;
7575;SDS011;3829;50.798;4.358;2023-02-26T16:18:53;1.10;;;0.90;;
7575;SDS011;3829;50.798;4.358;2023-02-26T16:21:40;3.57;;;1.10;;
7575;SDS011;3829;50.798;4.358;2023-02-26T16:24:06;1.20;;;1.10;;
7575;SDS011;3829;50.798;4.358;2023-02-26T16:26:37;2.43;;;1.37;;
7575;SDS011;3829;50.798;4.358;2023-02-26T16:29:09;1.63;;;1.20;;
7575;SDS011;3829;50.798;4.358;2023-02-26T16:31:39;1.27;;;1.00;;
7575;SDS011;3829;50.798;4.358;2023-02-26T16:36:55;2.00;;;1.20;;
7575;SDS011;3829;50.798;4.358;2023-02-26T16:39:22;1.43;;;1.10;;
7575;SDS011;3829;50.798;4.358;2023-02-26T16:42:01;2.37;;;1.00;;
7575;SDS011;3829;50.798;4.358;2023-02-26T16:46:59;2.97;;;1.30;;
7575;SDS011;3829;50.798;4.358;2023-02-26T16:49:32;1.73;;;1.20;;
7575;SDS011;3829;50.798;4.358;2023-02-26T16:52:00;2.47;;;1.20;;
7575;SDS011;3829;50.798;4.358;2023-02-26T16:54:29;5.13;;;1.30;;
7575;SDS011;3829;50.798;4.358;2023-02-26T16:57:02;1.43;;;1.03;;
7575;SDS011;3829;50.798;4.358;2023-02-26T16:59:32;3.73;;;1.40;;
7575;SDS011;3829;50.798;4.358;2023-02-26T17:02:23;3.70;;;1.20;;
7575;SDS011;3829;50.798;4.358;2023-02-26T17:04:56;2.03;;;1.10;;
7575;SDS011;3829;50.798;4.358;2023-02-26T17:07:27;2.60;;;1.10;;
7575;SDS011;3829;50.798;4.358;2023-02-26T17:09:56;1.63;;;1.30;;
7575;SDS011;3829;50.798;4.358;2023-02-26T17:15:10;2.37;;;1.40;;
7575;SDS011;3829;50.798;4.358;2023-02-26T17:17:51;5.37;;;1.20;;
7575;SDS011;3829;50.798;4.358;2023-02-26T17:20:20;2.87;;;1.50;;
7575;SDS011;3829;50.798;4.358;2023-02-26T17:22:47;1.20;;;1.03;;
7575;SDS011;3829;50.798;4.358;2023-02-26T17:25:14;2.50;;;1.23;;
7575;SDS011;3829;50.798;4.358;2023-02-26T17:27:41;4.70;;;1.10;;
7575;SDS011;3829;50.798;4.358;2023-02-26T17:30:07;3.03;;;1.20;;
7575;SDS011;3829;50.798;4.358;2023-02-26T17:32:36;3.43;;;1.30;;
7575;SDS011;3829;50.798;4.358;2023-02-26T17:35:01;4.20;;;1.60;;
7575;SDS011;3829;50.798;4.358;2023-02-26T17:37:30;6.60;;;1.47;;
7575;SDS011;3829;50.798;4.358;2023-02-26T17:39:57;1.47;;;1.20;;
7575;SDS011;3829;50.798;4.358;2023-02-26T17:42:24;2.10;;;1.60;;
7575;SDS011;3829;50.798;4.358;2023-02-26T17:44:50;2.17;;;1.47;;
7575;SDS011;3829;50.798;4.358;2023-02-26T17:47:22;6.77;;;1.60;;
7575;SDS011;3829;50.798;4.358;2023-02-26T17:49:49;3.33;;;1.40;;
7575;SDS011;3829;50.798;4.358;2023-02-26T17:52:15;7.00;;;1.77;;
7575;SDS011;3829;50.798;4.358;2023-02-26T17:54:42;1.40;;;1.13;;
7575;SDS011;3829;50.798;4.358;2023-02-26T17:57:08;4.47;;;1.50;;
7575;SDS011;3829;50.798;4.358;2023-02-26T17:59:40;3.60;;;1.63;;
7575;SDS011;3829;50.798;4.358;2023-02-26T18:02:23;4.00;;;1.47;;
7575;SDS011;3829;50.798;4.358;2023-02-26T18:04:51;5.20;;;1.60;;
7575;SDS011;3829;50.798;4.358;2023-02-26T18:07:17;3.13;;;1.63;;
7575;SDS011;3829;50.798;4.358;2023-02-26T18:09:44;2.77;;;1.47;;
7575;SDS011;3829;50.798;4.358;2023-02-26T18:12:12;4.77;;;2.10;;
7575;SDS011;3829;50.798;4.358;2023-02-26T18:14:38;5.60;;;1.83;;
7575;SDS011;3829;50.798;4.358;2023-02-26T18:17:04;2.87;;;1.63;;
7575;SDS011;3829;50.798;4.358;2023-02-26T18:19:30;3.43;;;1.70;;
7575;SDS011;3829;50.798;4.358;2023-02-26T18:21:56;5.47;;;1.90;;
7575;SDS011;3829;50.798;4.358;2023-02-26T18:24:22;5.97;;;1.87;;
7575;SDS011;3829;50.798;4.358;2023-02-26T18:26:47;4.80;;;1.70;;
7575;SDS011;3829;50.798;4.358;2023-02-26T18:29:13;3.70;;;1.80;;